sensor_id;sensor_type;location;lat;lon;timestamp;pressure;altitude;pressure_sealevel;temperature;humidity
9035;BME280;4552;43.422;24.592;2022-10-31T00:00:24;100282.81;;;15.74;61.75
9035;BME280;4552;43.422;24.592;2022-10-31T00:02:51;100260.56;;;15.52;62.35
9035;BME280;4552;43.422;24.592;2022-10-31T00:05:18;100258.06;;;15.47;62.30
9035;BME280;4552;43.422;24.592;2022-10-31T00:07:45;100287.84;;;15.52;62.24
9035;BME280;4552;43.422;24.592;2022-10-31T00:10:15;100287.13;;;15.46;63.12
9035;BME280;4552;43.422;24.592;2022-10-31T00:12:42;100275.13;;;15.33;63.61
9035;BME280;4552;43.422;24.592;2022-10-31T00:15:09;100261.56;;;15.16;63.91
9035;BME280;4552;43.422;24.592;2022-10-31T00:17:37;100294.59;;;15.29;64.14
9035;BME280;4552;43.422;24.592;2022-10-31T00:20:05;100292.13;;;15.23;64.63
9035;BME280;4552;43.422;24.592;2022-10-31T00:22:32;100294.50;;;15.32;63.77
9035;BME280;4552;43.422;24.592;2022-10-31T00:25:00;100285.22;;;15.19;63.92
9035;BME280;4552;43.422;24.592;2022-10-31T00:27:30;100295.63;;;15.23;63.77
9035;BME280;4552;43.422;24.592;2022-10-31T00:30:01;100274.47;;;15.58;62.16
9035;BME280;4552;43.422;24.592;2022-10-31T00:32:29;100287.34;;;15.37;63.45
9035;BME280;4552;43.422;24.592;2022-10-31T00:34:56;100279.03;;;15.20;64.04
9035;BME280;4552;43.422;24.592;2022-10-31T00:37:25;100290.31;;;15.25;64.05
9035;BME280;4552;43.422;24.592;2022-10-31T00:39:53;100274.75;;;15.16;64.41
9035;BME280;4552;43.422;24.592;2022-10-31T00:42:20;100306.59;;;15.42;64.35
9035;BME280;4552;43.422;24.592;2022-10-31T00:44:49;100313.69;;;15.40;64.44
9035;BME280;4552;43.422;24.592;2022-10-31T00:47:16;100291.31;;;15.53;64.36
9035;BME280;4552;43.422;24.592;2022-10-31T00:49:43;100296.53;;;15.54;63.86
9035;BME280;4552;43.422;24.592;2022-10-31T00:52:10;100274.69;;;15.51;63.75
9035;BME280;4552;43.422;24.592;2022-10-31T00:54:37;100270.47;;;15.44;64.03
9035;BME280;4552;43.422;24.592;2022-10-31T00:57:04;100311.09;;;15.69;64.05
9035;BME280;4552;43.422;24.592;2022-10-31T00:59:31;100316.59;;;15.92;63.60
9035;BME280;4552;43.422;24.592;2022-10-31T01:02:00;100305.38;;;15.84;64.04
9035;BME280;4552;43.422;24.592;2022-10-31T01:04:27;100296.25;;;15.65;64.49
9035;BME280;4552;43.422;24.592;2022-10-31T01:06:54;100272.75;;;15.56;64.43
9035;BME280;4552;43.422;24.592;2022-10-31T01:09:22;100281.31;;;15.64;64.35
9035;BME280;4552;43.422;24.592;2022-10-31T01:11:49;100290.78;;;15.71;64.03
9035;BME280;4552;43.422;24.592;2022-10-31T01:14:16;100296.06;;;15.73;64.77
9035;BME280;4552;43.422;24.592;2022-10-31T01:16:43;100314.78;;;15.93;64.07
9035;BME280;4552;43.422;24.592;2022-10-31T01:19:12;100307.34;;;16.07;62.85
9035;BME280;4552;43.422;24.592;2022-10-31T01:21:40;100301.41;;;15.99;63.29
9035;BME280;4552;43.422;24.592;2022-10-31T01:24:08;100307.19;;;16.11;63.08
9035;BME280;4552;43.422;24.592;2022-10-31T01:26:37;100308.47;;;15.98;63.10
9035;BME280;4552;43.422;24.592;2022-10-31T01:29:05;100312.38;;;16.14;63.59
9035;BME280;4552;43.422;24.592;2022-10-31T01:31:36;100286.34;;;15.73;63.87
9035;BME280;4552;43.422;24.592;2022-10-31T01:34:06;100306.06;;;15.91;64.43
9035;BME280;4552;43.422;24.592;2022-10-31T01:36:36;100321.31;;;16.10;63.50
9035;BME280;4552;43.422;24.592;2022-10-31T01:39:05;100312.09;;;15.94;63.96
9035;BME280;4552;43.422;24.592;2022-10-31T01:41:35;100311.91;;;16.00;63.73
9035;BME280;4552;43.422;24.592;2022-10-31T01:47:12;100319.13;;;16.24;63.62
9035;BME280;4552;43.422;24.592;2022-10-31T01:49:45;100324.66;;;16.17;64.15
9035;BME280;4552;43.422;24.592;2022-10-31T01:52:19;100315.81;;;16.18;63.89
9035;BME280;4552;43.422;24.592;2022-10-31T01:54:53;100321.41;;;16.36;63.43
9035;BME280;4552;43.422;24.592;2022-10-31T01:57:22;100309.72;;;16.43;62.54
9035;BME280;4552;43.422;24.592;2022-10-31T01:59:55;100323.53;;;16.53;62.73
9035;BME280;4552;43.422;24.592;2022-10-31T02:02:25;100318.22;;;16.54;62.92
9035;BME280;4552;43.422;24.592;2022-10-31T02:04:54;100324.09;;;16.35;63.09
9035;BME280;4552;43.422;24.592;2022-10-31T02:07:25;100306.22;;;16.15;63.94
9035;BME280;4552;43.422;24.592;2022-10-31T02:09:56;100328.50;;;16.34;63.72
9035;BME280;4552;43.422;24.592;2022-10-31T02:12:24;100322.34;;;16.34;63.43
9035;BME280;4552;43.422;24.592;2022-10-31T02:14:52;100319.84;;;16.29;63.88
9035;BME280;4552;43.422;24.592;2022-10-31T02:17:19;100295.88;;;16.08;64.18
9035;BME280;4552;43.422;24.592;2022-10-31T02:19:51;100324.41;;;16.24;63.81
9035;BME280;4552;43.422;24.592;2022-10-31T02:22:27;100319.50;;;15.83;65.20
9035;BME280;4552;43.422;24.592;2022-10-31T02:25:08;100309.44;;;15.65;65.39
9035;BME280;4552;43.422;24.592;2022-10-31T02:28:01;100304.53;;;15.51;65.81
9035;BME280;4552;43.422;24.592;2022-10-31T02:30:41;100338.81;;;15.53;66.67
9035;BME280;4552;43.422;24.592;2022-10-31T02:33:21;100340.69;;;15.49;67.21
9035;BME280;4552;43.422;24.592;2022-10-31T02:36:01;100334.84;;;15.37;66.62
9035;BME280;4552;43.422;24.592;2022-10-31T02:38:39;100333.41;;;15.24;67.63
9035;BME280;4552;43.422;24.592;2022-10-31T02:41:16;100339.84;;;15.14;68.05
9035;BME280;4552;43.422;24.592;2022-10-31T02:43:56;100343.63;;;15.02;68.60
9035;BME280;4552;43.422;24.592;2022-10-31T02:46:28;100340.44;;;14.91;69.60
9035;BME280;4552;43.422;24.592;2022-10-31T02:49:05;100349.28;;;14.87;69.03
9035;BME280;4552;43.422;24.592;2022-10-31T02:51:35;100341.66;;;14.77;69.62
9035;BME280;4552;43.422;24.592;2022-10-31T02:54:03;100322.19;;;14.47;70.21
9035;BME280;4552;43.422;24.592;2022-10-31T02:56:30;100325.63;;;14.49;70.65
9035;BME280;4552;43.422;24.592;2022-10-31T02:59:00;100337.31;;;14.38;71.04
9035;BME280;4552;43.422;24.592;2022-10-31T03:01:46;100332.22;;;14.30;71.50
9035;BME280;4552;43.422;24.592;2022-10-31T03:04:45;100347.22;;;14.65;70.54
9035;BME280;4552;43.422;24.592;2022-10-31T03:07:23;100341.09;;;14.63;70.49
9035;BME280;4552;43.422;24.592;2022-10-31T03:10:02;100338.91;;;14.45;70.88
9035;BME280;4552;43.422;24.592;2022-10-31T03:12:37;100356.66;;;14.35;71.88
9035;BME280;4552;43.422;24.592;2022-10-31T03:15:13;100360.09;;;14.40;71.98
9035;BME280;4552;43.422;24.592;2022-10-31T03:17:50;100348.75;;;14.37;71.68
9035;BME280;4552;43.422;24.592;2022-10-31T03:20:24;100348.13;;;14.26;71.65
9035;BME280;4552;43.422;24.592;2022-10-31T03:22:54;100326.22;;;13.82;73.25
9035;BME280;4552;43.422;24.592;2022-10-31T03:25:22;100334.22;;;13.76;74.20
9035;BME280;4552;43.422;24.592;2022-10-31T03:27:52;100370.00;;;13.85;74.40
9035;BME280;4552;43.422;24.592;2022-10-31T03:30:22;100369.84;;;13.92;74.75
9035;BME280;4552;43.422;24.592;2022-10-31T03:32:51;100347.13;;;13.88;74.17
9035;BME280;4552;43.422;24.592;2022-10-31T03:35:23;100352.78;;;13.70;74.84
9035;BME280;4552;43.422;24.592;2022-10-31T03:37:52;100361.59;;;13.66;75.52
9035;BME280;4552;43.422;24.592;2022-10-31T03:40:22;100359.88;;;13.65;76.93
9035;BME280;4552;43.422;24.592;2022-10-31T03:42:54;100356.72;;;13.47;77.14
9035;BME280;4552;43.422;24.592;2022-10-31T03:45:25;100363.91;;;13.37;77.99
9035;BME280;4552;43.422;24.592;2022-10-31T03:47:54;100367.28;;;13.45;78.30
9035;BME280;4552;43.422;24.592;2022-10-31T03:50:27;100344.03;;;13.23;77.94
9035;BME280;4552;43.422;24.592;2022-10-31T03:52:58;100366.06;;;13.14;80.06
9035;BME280;4552;43.422;24.592;2022-10-31T03:55:30;100369.72;;;13.07;80.47
9035;BME280;4552;43.422;24.592;2022-10-31T03:58:00;100352.34;;;12.97;80.31
9035;BME280;4552;43.422;24.592;2022-10-31T04:00:31;100357.47;;;13.06;80.61
9035;BME280;4552;43.422;24.592;2022-10-31T04:03:05;100354.97;;;12.97;80.08
9035;BME280;4552;43.422;24.592;2022-10-31T04:05:35;100366.22;;;13.05;80.57
9035;BME280;4552;43.422;24.592;2022-10-31T04:08:07;100358.44;;;13.01;80.75
9035;BME280;4552;43.422;24.592;2022-10-31T04:10:37;100365.47;;;12.97;80.33
9035;BME280;4552;43.422;24.592;2022-10-31T04:13:07;100378.72;;;12.91;80.25
9035;BME280;4552;43.422;24.592;2022-10-31T04:15:37;100382.13;;;12.95;80.91
9035;BME280;4552;43.422;24.592;2022-10-31T04:18:05;100375.09;;;13.00;81.16
9035;BME280;4552;43.422;24.592;2022-10-31T04:20:37;100362.19;;;12.85;82.08
9035;BME280;4552;43.422;24.592;2022-10-31T04:23:05;100363.28;;;12.70;82.02
9035;BME280;4552;43.422;24.592;2022-10-31T04:25:41;100364.28;;;12.63;82.34
9035;BME280;4552;43.422;24.592;2022-10-31T04:28:12;100388.63;;;12.74;81.57
9035;BME280;4552;43.422;24.592;2022-10-31T04:30:40;100387.84;;;12.66;82.01
9035;BME280;4552;43.422;24.592;2022-10-31T04:33:07;100371.38;;;12.55;82.10
9035;BME280;4552;43.422;24.592;2022-10-31T04:35:38;100386.19;;;12.62;81.54
9035;BME280;4552;43.422;24.592;2022-10-31T04:38:05;100356.47;;;12.57;82.25
9035;BME280;4552;43.422;24.592;2022-10-31T04:40:32;100392.34;;;12.58;82.44
9035;BME280;4552;43.422;24.592;2022-10-31T04:42:59;100402.97;;;12.49;82.97
9035;BME280;4552;43.422;24.592;2022-10-31T04:45:29;100377.72;;;12.42;83.38
9035;BME280;4552;43.422;24.592;2022-10-31T04:47:56;100379.56;;;12.34;83.24
9035;BME280;4552;43.422;24.592;2022-10-31T04:50:23;100370.88;;;12.29;83.42
9035;BME280;4552;43.422;24.592;2022-10-31T04:53:01;100383.03;;;12.38;83.41
9035;BME280;4552;43.422;24.592;2022-10-31T04:55:28;100403.94;;;12.45;83.46
9035;BME280;4552;43.422;24.592;2022-10-31T04:57:55;100392.69;;;12.36;84.10
9035;BME280;4552;43.422;24.592;2022-10-31T05:00:23;100403.94;;;12.45;84.04
9035;BME280;4552;43.422;24.592;2022-10-31T05:02:52;100410.78;;;12.55;83.73
9035;BME280;4552;43.422;24.592;2022-10-31T05:05:20;100406.25;;;12.66;82.89
9035;BME280;4552;43.422;24.592;2022-10-31T05:07:48;100401.16;;;12.54;83.26
9035;BME280;4552;43.422;24.592;2022-10-31T05:10:19;100400.34;;;12.49;83.90
9035;BME280;4552;43.422;24.592;2022-10-31T05:12:51;100411.63;;;12.57;84.00
9035;BME280;4552;43.422;24.592;2022-10-31T05:15:21;100409.00;;;12.57;83.47
9035;BME280;4552;43.422;24.592;2022-10-31T05:17:49;100419.34;;;12.68;83.15
9035;BME280;4552;43.422;24.592;2022-10-31T05:20:18;100413.16;;;12.70;83.36
9035;BME280;4552;43.422;24.592;2022-10-31T05:22:47;100413.19;;;12.69;83.65
9035;BME280;4552;43.422;24.592;2022-10-31T05:25:17;100427.13;;;12.75;83.68
9035;BME280;4552;43.422;24.592;2022-10-31T05:27:45;100435.00;;;12.75;83.21
9035;BME280;4552;43.422;24.592;2022-10-31T05:30:15;100405.28;;;12.70;82.97
9035;BME280;4552;43.422;24.592;2022-10-31T05:32:44;100426.94;;;12.87;82.36
9035;BME280;4552;43.422;24.592;2022-10-31T05:35:14;100434.72;;;12.93;82.56
9035;BME280;4552;43.422;24.592;2022-10-31T05:37:42;100446.91;;;12.99;82.02
9035;BME280;4552;43.422;24.592;2022-10-31T05:40:11;100431.00;;;13.09;82.20
9035;BME280;4552;43.422;24.592;2022-10-31T05:42:42;100423.25;;;13.02;81.35
9035;BME280;4552;43.422;24.592;2022-10-31T05:45:11;100443.25;;;13.10;81.38
9035;BME280;4552;43.422;24.592;2022-10-31T05:47:38;100450.75;;;13.33;80.42
9035;BME280;4552;43.422;24.592;2022-10-31T05:50:06;100421.34;;;13.10;80.92
9035;BME280;4552;43.422;24.592;2022-10-31T05:52:34;100430.72;;;13.27;81.42
9035;BME280;4552;43.422;24.592;2022-10-31T05:55:01;100446.22;;;13.42;81.41
9035;BME280;4552;43.422;24.592;2022-10-31T05:57:31;100470.16;;;13.76;80.26
9035;BME280;4552;43.422;24.592;2022-10-31T06:00:00;100453.34;;;13.86;79.13
9035;BME280;4552;43.422;24.592;2022-10-31T06:02:28;100461.59;;;14.11;79.54
9035;BME280;4552;43.422;24.592;2022-10-31T06:05:02;100448.44;;;14.12;77.91
9035;BME280;4552;43.422;24.592;2022-10-31T06:07:32;100466.81;;;14.15;77.96
9035;BME280;4552;43.422;24.592;2022-10-31T06:09:59;100459.59;;;14.25;77.65
9035;BME280;4552;43.422;24.592;2022-10-31T06:12:29;100456.78;;;14.34;76.69
9035;BME280;4552;43.422;24.592;2022-10-31T06:15:06;100440.91;;;14.37;76.77
9035;BME280;4552;43.422;24.592;2022-10-31T06:17:34;100455.22;;;14.66;75.87
9035;BME280;4552;43.422;24.592;2022-10-31T06:20:06;100469.00;;;14.79;75.40
9035;BME280;4552;43.422;24.592;2022-10-31T06:22:33;100463.13;;;15.04;75.17
9035;BME280;4552;43.422;24.592;2022-10-31T06:25:00;100473.69;;;15.03;74.42
9035;BME280;4552;43.422;24.592;2022-10-31T06:27:28;100453.56;;;15.00;74.20
9035;BME280;4552;43.422;24.592;2022-10-31T06:29:56;100464.44;;;15.23;73.00
9035;BME280;4552;43.422;24.592;2022-10-31T06:32:27;100465.94;;;15.33;72.04
9035;BME280;4552;43.422;24.592;2022-10-31T06:34:55;100471.72;;;15.49;71.19
9035;BME280;4552;43.422;24.592;2022-10-31T06:37:22;100470.25;;;15.36;71.60
9035;BME280;4552;43.422;24.592;2022-10-31T06:39:49;100469.28;;;15.41;71.79
9035;BME280;4552;43.422;24.592;2022-10-31T06:42:18;100488.00;;;15.66;71.65
9035;BME280;4552;43.422;24.592;2022-10-31T06:44:48;100492.13;;;15.76;70.65
9035;BME280;4552;43.422;24.592;2022-10-31T06:47:18;100486.41;;;15.93;70.89
9035;BME280;4552;43.422;24.592;2022-10-31T06:49:47;100485.38;;;16.30;69.31
9035;BME280;4552;43.422;24.592;2022-10-31T06:52:14;100489.41;;;16.43;67.56
9035;BME280;4552;43.422;24.592;2022-10-31T06:54:45;100493.25;;;16.32;67.90
9035;BME280;4552;43.422;24.592;2022-10-31T06:57:13;100499.31;;;16.37;67.40
9035;BME280;4552;43.422;24.592;2022-10-31T06:59:43;100496.50;;;16.73;67.49
9035;BME280;4552;43.422;24.592;2022-10-31T07:02:10;100487.09;;;16.63;66.68
9035;BME280;4552;43.422;24.592;2022-10-31T07:04:40;100505.72;;;16.88;65.97
9035;BME280;4552;43.422;24.592;2022-10-31T07:07:11;100516.91;;;16.97;65.79
9035;BME280;4552;43.422;24.592;2022-10-31T07:09:41;100507.84;;;17.04;64.46
9035;BME280;4552;43.422;24.592;2022-10-31T07:12:08;100504.28;;;17.07;64.56
9035;BME280;4552;43.422;24.592;2022-10-31T07:14:35;100483.31;;;16.99;64.26
9035;BME280;4552;43.422;24.592;2022-10-31T07:17:03;100507.84;;;17.32;63.03
9035;BME280;4552;43.422;24.592;2022-10-31T07:19:42;100481.91;;;17.17;63.22
9035;BME280;4552;43.422;24.592;2022-10-31T07:22:12;100493.81;;;17.58;62.04
9035;BME280;4552;43.422;24.592;2022-10-31T07:24:39;100507.25;;;17.78;62.19
9035;BME280;4552;43.422;24.592;2022-10-31T07:27:20;100487.50;;;17.88;60.66
9035;BME280;4552;43.422;24.592;2022-10-31T07:29:52;100510.03;;;18.24;60.32
9035;BME280;4552;43.422;24.592;2022-10-31T07:34:51;100491.03;;;18.36;59.12
9035;BME280;4552;43.422;24.592;2022-10-31T07:37:20;100478.53;;;18.41;58.44
9035;BME280;4552;43.422;24.592;2022-10-31T07:39:47;100505.06;;;18.64;58.78
9035;BME280;4552;43.422;24.592;2022-10-31T07:42:14;100490.31;;;18.32;59.37
9035;BME280;4552;43.422;24.592;2022-10-31T07:44:42;100510.78;;;18.53;58.67
9035;BME280;4552;43.422;24.592;2022-10-31T07:47:09;100485.31;;;18.48;58.64
9035;BME280;4552;43.422;24.592;2022-10-31T07:49:39;100503.72;;;18.52;58.36
9035;BME280;4552;43.422;24.592;2022-10-31T07:52:07;100503.78;;;18.74;58.27
9035;BME280;4552;43.422;24.592;2022-10-31T07:54:36;100500.41;;;18.92;57.52
9035;BME280;4552;43.422;24.592;2022-10-31T07:57:04;100491.63;;;18.91;57.08
9035;BME280;4552;43.422;24.592;2022-10-31T07:59:31;100499.03;;;19.05;56.91
9035;BME280;4552;43.422;24.592;2022-10-31T08:01:58;100512.31;;;19.05;56.68
9035;BME280;4552;43.422;24.592;2022-10-31T08:04:25;100516.06;;;19.21;55.94
9035;BME280;4552;43.422;24.592;2022-10-31T08:06:53;100519.53;;;19.23;56.14
9035;BME280;4552;43.422;24.592;2022-10-31T08:09:21;100521.88;;;19.09;56.26
9035;BME280;4552;43.422;24.592;2022-10-31T08:11:49;100515.28;;;19.19;56.17
9035;BME280;4552;43.422;24.592;2022-10-31T08:14:16;100499.06;;;19.27;55.69
9035;BME280;4552;43.422;24.592;2022-10-31T08:16:43;100511.13;;;19.35;56.12
9035;BME280;4552;43.422;24.592;2022-10-31T08:19:10;100507.97;;;19.47;55.37
9035;BME280;4552;43.422;24.592;2022-10-31T08:21:37;100502.84;;;19.43;55.46
9035;BME280;4552;43.422;24.592;2022-10-31T08:24:05;100511.56;;;19.46;55.30
9035;BME280;4552;43.422;24.592;2022-10-31T08:26:32;100504.41;;;19.48;55.15
9035;BME280;4552;43.422;24.592;2022-10-31T08:29:01;100502.50;;;19.72;54.70
9035;BME280;4552;43.422;24.592;2022-10-31T08:31:28;100502.59;;;19.90;53.96
9035;BME280;4552;43.422;24.592;2022-10-31T08:33:57;100497.34;;;19.89;54.39
9035;BME280;4552;43.422;24.592;2022-10-31T08:36:27;100503.56;;;20.09;53.17
9035;BME280;4552;43.422;24.592;2022-10-31T08:38:54;100492.31;;;20.03;53.29
9035;BME280;4552;43.422;24.592;2022-10-31T08:41:21;100520.84;;;20.19;53.03
9035;BME280;4552;43.422;24.592;2022-10-31T08:43:48;100516.94;;;20.28;52.67
9035;BME280;4552;43.422;24.592;2022-10-31T08:46:18;100518.31;;;20.36;52.35
9035;BME280;4552;43.422;24.592;2022-10-31T08:48:48;100510.53;;;20.52;52.03
9035;BME280;4552;43.422;24.592;2022-10-31T08:51:15;100499.41;;;20.63;51.89
9035;BME280;4552;43.422;24.592;2022-10-31T08:53:42;100499.44;;;20.81;51.28
9035;BME280;4552;43.422;24.592;2022-10-31T08:56:09;100520.53;;;21.23;50.49
9035;BME280;4552;43.422;24.592;2022-10-31T08:58:38;100525.88;;;21.23;49.92
9035;BME280;4552;43.422;24.592;2022-10-31T09:01:05;100530.50;;;21.55;49.32
9035;BME280;4552;43.422;24.592;2022-10-31T09:03:34;100524.66;;;21.65;48.56
9035;BME280;4552;43.422;24.592;2022-10-31T09:06:02;100508.44;;;21.34;49.24
9035;BME280;4552;43.422;24.592;2022-10-31T09:08:34;100520.25;;;21.29;49.56
9035;BME280;4552;43.422;24.592;2022-10-31T09:11:03;100515.31;;;21.38;49.20
9035;BME280;4552;43.422;24.592;2022-10-31T09:13:32;100513.41;;;21.05;49.87
9035;BME280;4552;43.422;24.592;2022-10-31T09:16:00;100494.53;;;20.72;50.94
9035;BME280;4552;43.422;24.592;2022-10-31T09:18:27;100511.03;;;20.99;49.77
9035;BME280;4552;43.422;24.592;2022-10-31T09:20:57;100500.69;;;20.73;50.90
9035;BME280;4552;43.422;24.592;2022-10-31T09:23:25;100509.81;;;21.06;49.94
9035;BME280;4552;43.422;24.592;2022-10-31T09:25:53;100520.13;;;21.13;49.77
9035;BME280;4552;43.422;24.592;2022-10-31T09:28:22;100503.91;;;20.99;49.98
9035;BME280;4552;43.422;24.592;2022-10-31T09:30:51;100483.91;;;20.91;49.60
9035;BME280;4552;43.422;24.592;2022-10-31T09:33:19;100504.97;;;21.14;49.52
9035;BME280;4552;43.422;24.592;2022-10-31T09:35:47;100497.13;;;20.92;49.58
9035;BME280;4552;43.422;24.592;2022-10-31T09:38:18;100504.22;;;21.12;49.70
9035;BME280;4552;43.422;24.592;2022-10-31T09:40:48;100493.03;;;21.41;49.31
9035;BME280;4552;43.422;24.592;2022-10-31T09:43:20;100474.47;;;21.21;48.74
9035;BME280;4552;43.422;24.592;2022-10-31T09:45:58;100497.84;;;21.33;48.71
9035;BME280;4552;43.422;24.592;2022-10-31T09:48:52;100492.06;;;21.42;48.57
9035;BME280;4552;43.422;24.592;2022-10-31T09:51:28;100488.34;;;21.63;48.10
9035;BME280;4552;43.422;24.592;2022-10-31T09:54:05;100498.69;;;21.69;47.92
9035;BME280;4552;43.422;24.592;2022-10-31T09:56:37;100488.19;;;21.66;47.85
9035;BME280;4552;43.422;24.592;2022-10-31T09:59:11;100479.44;;;21.81;47.66
9035;BME280;4552;43.422;24.592;2022-10-31T10:04:38;100484.03;;;21.96;47.10
9035;BME280;4552;43.422;24.592;2022-10-31T10:07:13;100478.38;;;21.85;47.35
9035;BME280;4552;43.422;24.592;2022-10-31T10:09:44;100471.84;;;22.07;47.01
9035;BME280;4552;43.422;24.592;2022-10-31T10:12:17;100473.47;;;22.10;46.67
9035;BME280;4552;43.422;24.592;2022-10-31T10:14:55;100472.56;;;22.11;46.49
9035;BME280;4552;43.422;24.592;2022-10-31T10:17:34;100478.13;;;22.23;46.46
9035;BME280;4552;43.422;24.592;2022-10-31T10:20:15;100481.28;;;22.47;45.86
9035;BME280;4552;43.422;24.592;2022-10-31T10:22:49;100472.91;;;22.70;45.03
9035;BME280;4552;43.422;24.592;2022-10-31T10:25:23;100473.72;;;22.72;45.43
9035;BME280;4552;43.422;24.592;2022-10-31T10:28:00;100477.84;;;22.78;44.97
9035;BME280;4552;43.422;24.592;2022-10-31T10:30:34;100467.84;;;22.66;45.15
9035;BME280;4552;43.422;24.592;2022-10-31T10:33:09;100455.38;;;22.66;45.35
9035;BME280;4552;43.422;24.592;2022-10-31T10:35:44;100473.41;;;22.94;45.03
9035;BME280;4552;43.422;24.592;2022-10-31T10:38:23;100444.84;;;23.10;44.57
9035;BME280;4552;43.422;24.592;2022-10-31T10:40:57;100444.44;;;23.48;43.38
9035;BME280;4552;43.422;24.592;2022-10-31T10:43:32;100463.66;;;23.55;43.58
9035;BME280;4552;43.422;24.592;2022-10-31T10:46:16;100462.59;;;23.57;43.18
9035;BME280;4552;43.422;24.592;2022-10-31T10:49:12;100444.72;;;23.28;43.84
9035;BME280;4552;43.422;24.592;2022-10-31T10:51:54;100441.03;;;23.60;43.14
9035;BME280;4552;43.422;24.592;2022-10-31T10:54:42;100434.00;;;23.73;42.97
9035;BME280;4552;43.422;24.592;2022-10-31T10:57:22;100443.84;;;24.03;42.04
9035;BME280;4552;43.422;24.592;2022-10-31T11:00:16;100456.88;;;23.63;42.76
9035;BME280;4552;43.422;24.592;2022-10-31T11:02:44;100452.38;;;23.79;43.09
9035;BME280;4552;43.422;24.592;2022-10-31T11:05:20;100439.94;;;23.78;42.70
9035;BME280;4552;43.422;24.592;2022-10-31T11:07:51;100438.59;;;24.15;41.81
9035;BME280;4552;43.422;24.592;2022-10-31T11:10:20;100443.00;;;24.30;41.58
9035;BME280;4552;43.422;24.592;2022-10-31T11:13:03;100417.31;;;24.42;41.39
9035;BME280;4552;43.422;24.592;2022-10-31T11:15:34;100438.94;;;24.53;41.35
9035;BME280;4552;43.422;24.592;2022-10-31T11:18:02;100449.63;;;24.53;41.17
9035;BME280;4552;43.422;24.592;2022-10-31T11:20:31;100421.53;;;24.18;41.34
9035;BME280;4552;43.422;24.592;2022-10-31T11:23:02;100435.09;;;24.57;40.93
9035;BME280;4552;43.422;24.592;2022-10-31T11:25:31;100445.31;;;24.64;41.22
9035;BME280;4552;43.422;24.592;2022-10-31T11:28:05;100436.50;;;24.62;40.95
9035;BME280;4552;43.422;24.592;2022-10-31T11:30:46;100429.34;;;24.91;40.39
9035;BME280;4552;43.422;24.592;2022-10-31T11:33:18;100415.69;;;24.81;40.57
9035;BME280;4552;43.422;24.592;2022-10-31T11:35:47;100413.47;;;24.88;40.34
9035;BME280;4552;43.422;24.592;2022-10-31T11:38:18;100418.28;;;24.41;41.20
9035;BME280;4552;43.422;24.592;2022-10-31T12:08:59;100395.69;;;24.59;40.41
9035;BME280;4552;43.422;24.592;2022-10-31T12:11:39;100405.16;;;24.36;40.45
9035;BME280;4552;43.422;24.592;2022-10-31T12:14:17;100399.34;;;24.30;41.00
9035;BME280;4552;43.422;24.592;2022-10-31T12:16:53;100387.38;;;24.21;41.06
9035;BME280;4552;43.422;24.592;2022-10-31T12:19:32;100400.31;;;24.15;41.27
9035;BME280;4552;43.422;24.592;2022-10-31T12:22:10;100394.19;;;24.27;41.40
9035;BME280;4552;43.422;24.592;2022-10-31T12:24:58;100397.91;;;24.38;40.81
9035;BME280;4552;43.422;24.592;2022-10-31T12:27:37;100400.09;;;24.46;40.88
9035;BME280;4552;43.422;24.592;2022-10-31T12:30:19;100396.47;;;24.47;40.74
9035;BME280;4552;43.422;24.592;2022-10-31T12:33:10;100393.50;;;24.37;41.10
9035;BME280;4552;43.422;24.592;2022-10-31T12:35:47;100397.59;;;24.29;41.24
9035;BME280;4552;43.422;24.592;2022-10-31T12:38:28;100404.22;;;24.51;40.51
9035;BME280;4552;43.422;24.592;2022-10-31T12:41:18;100374.09;;;24.34;41.10
9035;BME280;4552;43.422;24.592;2022-10-31T12:43:55;100391.81;;;24.22;40.54
9035;BME280;4552;43.422;24.592;2022-10-31T12:46:31;100392.84;;;24.20;41.09
9035;BME280;4552;43.422;24.592;2022-10-31T12:49:21;100388.75;;;24.42;41.20
9035;BME280;4552;43.422;24.592;2022-10-31T12:52:07;100394.00;;;24.30;41.29
9035;BME280;4552;43.422;24.592;2022-10-31T12:54:50;100390.25;;;24.46;40.96
9035;BME280;4552;43.422;24.592;2022-10-31T12:57:27;100393.22;;;24.56;40.48
9035;BME280;4552;43.422;24.592;2022-10-31T13:00:00;100398.66;;;24.68;40.14
9035;BME280;4552;43.422;24.592;2022-10-31T13:02:34;100395.16;;;24.68;39.97
9035;BME280;4552;43.422;24.592;2022-10-31T13:05:11;100389.97;;;24.79;39.42
9035;BME280;4552;43.422;24.592;2022-10-31T13:07:44;100374.81;;;24.64;39.90
9035;BME280;4552;43.422;24.592;2022-10-31T13:10:17;100399.69;;;24.52;39.99
9035;BME280;4552;43.422;24.592;2022-10-31T13:12:49;100408.50;;;24.54;40.28
9035;BME280;4552;43.422;24.592;2022-10-31T13:15:21;100394.25;;;24.53;39.58
9035;BME280;4552;43.422;24.592;2022-10-31T13:17:56;100392.63;;;24.51;39.58
9035;BME280;4552;43.422;24.592;2022-10-31T13:20:29;100399.31;;;24.86;39.41
9035;BME280;4552;43.422;24.592;2022-10-31T13:23:05;100394.06;;;24.56;39.84
9035;BME280;4552;43.422;24.592;2022-10-31T13:25:40;100393.50;;;24.37;40.37
9035;BME280;4552;43.422;24.592;2022-10-31T13:28:26;100396.88;;;24.27;40.63
9035;BME280;4552;43.422;24.592;2022-10-31T13:30:55;100399.69;;;24.52;40.12
9035;BME280;4552;43.422;24.592;2022-10-31T13:33:25;100400.28;;;24.43;40.19
9035;BME280;4552;43.422;24.592;2022-10-31T13:36:06;100377.16;;;24.42;40.42
9035;BME280;4552;43.422;24.592;2022-10-31T13:38:38;100398.38;;;24.45;40.23
9035;BME280;4552;43.422;24.592;2022-10-31T13:41:16;100393.22;;;24.42;40.60
9035;BME280;4552;43.422;24.592;2022-10-31T13:43:59;100373.53;;;24.43;40.25
9035;BME280;4552;43.422;24.592;2022-10-31T13:46:36;100389.88;;;24.52;40.69
9035;BME280;4552;43.422;24.592;2022-10-31T13:49:04;100397.41;;;24.46;40.33
9035;BME280;4552;43.422;24.592;2022-10-31T13:51:47;100394.56;;;24.21;40.66
9035;BME280;4552;43.422;24.592;2022-10-31T13:54:22;100387.03;;;24.13;41.07
9035;BME280;4552;43.422;24.592;2022-10-31T13:56:51;100384.50;;;24.24;40.60
9035;BME280;4552;43.422;24.592;2022-10-31T13:59:22;100387.88;;;24.28;40.87